createdAt,value
2019-01-31T00:02:46.186Z,9.30
2019-01-31T00:06:04.090Z,8.73
2019-01-31T00:08:50.822Z,8.33
2019-01-31T00:11:40.452Z,9.60
2019-01-31T00:14:41.347Z,8.43
2019-01-31T00:17:43.451Z,8.83
2019-01-31T00:20:52.180Z,8.30
2019-01-31T00:24:19.023Z,7.17
2019-01-31T00:27:21.373Z,7.03
2019-01-31T00:30:44.775Z,6.93
2019-01-31T00:34:05.365Z,7.90
2019-01-31T00:37:08.564Z,7.23
2019-01-31T00:40:08.855Z,8.50
2019-01-31T00:43:17.962Z,7.13
2019-01-31T00:46:22.987Z,7.60
2019-01-31T00:49:32.523Z,8.73
2019-01-31T00:52:26.670Z,8.70
2019-01-31T00:55:47.166Z,9.00
2019-01-31T00:58:54.292Z,9.00
2019-01-31T01:02:30.113Z,9.80
2019-01-31T01:05:31.860Z,7.00
2019-01-31T01:08:42.379Z,6.13
2019-01-31T01:11:45.939Z,6.63
2019-01-31T01:14:55.978Z,4.90
2019-01-31T01:17:50.043Z,4.40
2019-01-31T01:21:00.882Z,4.40
2019-01-31T01:23:41.818Z,5.30
2019-01-31T01:26:41.587Z,4.50
2019-01-31T01:29:42.410Z,4.47
2019-01-31T01:32:57.013Z,5.23
2019-01-31T01:35:42.910Z,5.23
2019-01-31T01:39:18.871Z,7.00
2019-01-31T01:42:03.057Z,5.90
2019-01-31T01:45:05.742Z,6.77
2019-01-31T01:48:01.351Z,8.03
2019-01-31T01:50:47.011Z,9.20
2019-01-31T02:09:31.839Z,10.17
2019-01-31T02:12:37.856Z,9.30
2019-01-31T02:15:55.238Z,11.03
2019-01-31T02:19:06.021Z,10.27
2019-01-31T02:22:19.631Z,11.53
2019-01-31T02:25:01.927Z,10.87
2019-01-31T02:28:09.152Z,12.67
2019-01-31T02:31:28.439Z,12.43
2019-01-31T02:34:25.443Z,13.13
2019-01-31T02:37:15.492Z,15.70
2019-01-31T02:40:36.292Z,16.47
2019-01-31T02:43:53.231Z,17.23
2019-01-31T02:46:31.138Z,17.97
2019-01-31T02:49:27.135Z,18.13
2019-01-31T02:52:21.064Z,18.40
2019-01-31T02:55:28.145Z,20.07
2019-01-31T02:58:24.135Z,19.77
2019-01-31T03:01:30.199Z,20.27
2019-01-31T03:04:34.859Z,21.13
2019-01-31T03:07:30.954Z,22.33
2019-01-31T03:10:41.839Z,20.63
2019-01-31T03:13:37.411Z,21.10
2019-01-31T03:16:33.441Z,21.80
2019-01-31T03:19:26.976Z,22.17
2019-01-31T03:22:04.212Z,21.57
2019-01-31T03:25:24.705Z,24.20
2019-01-31T03:28:11.493Z,24.73
2019-01-31T03:31:09.143Z,22.73
2019-01-31T03:34:15.121Z,25.13
2019-01-31T03:37:04.200Z,25.87
2019-01-31T03:40:06.848Z,23.30
2019-01-31T03:43:08.677Z,24.43
2019-01-31T03:46:35.339Z,26.53
2019-01-31T03:49:37.519Z,27.03
2019-01-31T03:52:47.471Z,28.13
2019-01-31T03:55:27.365Z,27.40
2019-01-31T03:58:09.799Z,26.10
2019-01-31T04:01:42.204Z,24.83
2019-01-31T04:04:20.259Z,21.40
2019-01-31T04:06:51.038Z,24.73
2019-01-31T04:09:21.856Z,24.40
2019-01-31T04:11:52.610Z,24.50
2019-01-31T04:14:23.423Z,23.40
2019-01-31T04:16:54.356Z,26.20
2019-01-31T04:19:25.173Z,26.47
2019-01-31T04:21:55.944Z,26.50
2019-01-31T04:24:27.004Z,26.03
2019-01-31T04:26:57.783Z,23.43
2019-01-31T04:29:28.562Z,26.67
2019-01-31T04:31:59.426Z,27.87
2019-01-31T04:34:30.285Z,26.80
2019-01-31T04:37:01.153Z,23.57
2019-01-31T04:39:33.422Z,27.47
2019-01-31T04:42:04.178Z,24.70
2019-01-31T04:44:34.885Z,22.83
2019-01-31T04:47:05.621Z,24.27
2019-01-31T04:49:36.303Z,25.00
2019-01-31T04:52:07.091Z,23.63
2019-01-31T04:54:37.842Z,22.90
2019-01-31T04:57:08.587Z,26.50
2019-01-31T04:59:39.304Z,26.73
2019-01-31T05:02:09.971Z,27.40
2019-01-31T05:04:40.683Z,26.43
2019-01-31T05:07:11.466Z,25.57
2019-01-31T05:09:42.170Z,26.37
2019-01-31T05:12:13.116Z,25.13
2019-01-31T05:14:43.810Z,25.13
2019-01-31T05:17:14.619Z,26.33
2019-01-31T05:19:45.369Z,27.37
2019-01-31T05:22:16.166Z,28.43
2019-01-31T05:24:46.984Z,28.23
2019-01-31T05:27:17.787Z,28.57
2019-01-31T05:29:48.582Z,29.37
2019-01-31T05:32:19.408Z,28.93
2019-01-31T05:34:50.157Z,27.83
2019-01-31T05:37:21.008Z,29.77
2019-01-31T05:39:51.763Z,29.57
2019-01-31T05:42:22.471Z,31.00
2019-01-31T05:44:53.223Z,30.33
2019-01-31T05:47:23.994Z,31.03
2019-01-31T05:49:54.907Z,31.00
2019-01-31T05:52:25.650Z,29.23
2019-01-31T05:54:56.472Z,29.07
2019-01-31T05:57:27.214Z,29.47
2019-01-31T05:59:58.011Z,30.20
2019-01-31T06:02:29.878Z,31.60
2019-01-31T06:05:00.782Z,32.60
2019-01-31T06:07:31.653Z,35.10
2019-01-31T06:10:02.470Z,33.87
2019-01-31T06:12:33.204Z,33.63
2019-01-31T06:15:04.523Z,33.63
2019-01-31T06:17:35.494Z,37.00
2019-01-31T06:20:06.925Z,31.73
2019-01-31T06:22:37.678Z,34.83
2019-01-31T06:25:08.530Z,37.20
2019-01-31T06:27:39.342Z,36.40
2019-01-31T06:30:11.851Z,38.43
2019-01-31T06:32:42.601Z,36.13
2019-01-31T06:35:13.816Z,38.20
2019-01-31T06:37:44.483Z,38.13
2019-01-31T06:40:17.288Z,38.67
2019-01-31T06:42:48.054Z,37.47
2019-01-31T06:45:19.915Z,38.47
2019-01-31T06:47:50.750Z,36.43
2019-01-31T06:50:22.483Z,39.87
2019-01-31T06:52:53.230Z,39.93
2019-01-31T06:55:23.998Z,35.87
2019-01-31T06:57:54.776Z,41.20
2019-01-31T07:00:25.760Z,37.77
2019-01-31T07:02:58.125Z,41.57
2019-01-31T07:05:28.922Z,38.47
2019-01-31T07:07:59.689Z,42.40
2019-01-31T07:10:30.922Z,37.40
2019-01-31T07:13:01.683Z,41.00
2019-01-31T07:15:32.460Z,36.67
2019-01-31T07:18:03.275Z,41.53
2019-01-31T07:20:34.174Z,40.83
2019-01-31T07:23:04.991Z,42.03
2019-01-31T07:25:35.842Z,37.37
2019-01-31T07:28:18.005Z,41.33
2019-01-31T07:30:48.869Z,42.67
2019-01-31T07:33:19.831Z,44.70
2019-01-31T07:35:52.149Z,40.70
2019-01-31T07:38:23.125Z,35.87
2019-01-31T07:40:53.923Z,42.83
2019-01-31T07:43:24.815Z,40.90
2019-01-31T07:45:55.663Z,41.33
2019-01-31T07:48:26.519Z,43.50
2019-01-31T07:50:57.382Z,36.87
2019-01-31T07:53:28.303Z,40.30
2019-01-31T07:55:59.066Z,41.93
2019-01-31T07:58:29.822Z,46.57
2019-01-31T08:01:00.683Z,40.60
2019-01-31T08:03:31.686Z,43.67
2019-01-31T08:06:02.590Z,45.43
2019-01-31T08:08:33.377Z,39.10
2019-01-31T08:11:05.235Z,41.57
2019-01-31T08:13:37.542Z,35.67
2019-01-31T08:16:08.370Z,40.07
2019-01-31T08:18:39.218Z,36.93
2019-01-31T08:21:10.115Z,38.27
2019-01-31T08:23:40.865Z,40.87
2019-01-31T08:26:11.672Z,35.90
2019-01-31T08:28:42.455Z,39.23
2019-01-31T08:31:13.145Z,40.03
2019-01-31T08:33:43.817Z,39.67
2019-01-31T08:36:14.584Z,30.77
2019-01-31T08:38:45.367Z,36.83
2019-01-31T08:41:16.071Z,37.93
2019-01-31T08:43:46.823Z,38.57
2019-01-31T08:46:17.622Z,31.10
2019-01-31T08:48:48.370Z,24.10
2019-01-31T08:51:19.075Z,29.07
2019-01-31T08:53:49.741Z,32.83
2019-01-31T08:56:20.717Z,35.07
2019-01-31T08:58:51.389Z,34.30
2019-01-31T09:01:22.179Z,36.07
2019-01-31T09:03:53.055Z,28.17
2019-01-31T09:06:23.832Z,34.43
2019-01-31T09:08:54.595Z,31.97
2019-01-31T09:11:25.378Z,34.03
2019-01-31T09:13:57.726Z,29.97
2019-01-31T09:16:28.543Z,30.63
2019-01-31T09:18:59.330Z,24.83
2019-01-31T09:22:00.155Z,29.17
2019-01-31T09:25:06.183Z,29.87
2019-01-31T09:28:08.606Z,30.40
2019-01-31T09:31:25.354Z,29.17
2019-01-31T09:34:51.808Z,28.60
2019-01-31T09:37:46.017Z,27.70
2019-01-31T09:41:09.613Z,26.17
2019-01-31T09:44:17.007Z,29.53
2019-01-31T09:47:09.746Z,26.03
2019-01-31T09:50:08.295Z,28.40
2019-01-31T09:53:18.454Z,34.60
2019-01-31T09:56:51.349Z,29.80
2019-01-31T09:59:54.290Z,25.37
2019-01-31T10:03:15.342Z,31.63
2019-01-31T10:06:22.843Z,29.53
2019-01-31T10:09:18.779Z,33.97
2019-01-31T10:12:12.584Z,34.63
2019-01-31T10:15:21.347Z,36.47
2019-01-31T10:18:31.992Z,34.27
2019-01-31T10:21:39.691Z,24.63
2019-01-31T10:24:58.416Z,26.23
2019-01-31T10:27:57.980Z,27.67
2019-01-31T10:31:02.493Z,29.03
2019-01-31T10:34:08.414Z,33.37
2019-01-31T10:37:24.791Z,29.47
2019-01-31T10:40:42.261Z,33.93
2019-01-31T10:43:54.252Z,31.03
2019-01-31T10:46:52.292Z,33.03
2019-01-31T10:50:01.237Z,36.13
2019-01-31T10:53:17.458Z,33.40
2019-01-31T10:56:26.397Z,29.57
2019-01-31T10:59:29.678Z,34.03
2019-01-31T11:02:43.734Z,34.17
2019-01-31T11:05:44.589Z,27.93
2019-01-31T11:08:40.715Z,32.70
2019-01-31T11:11:36.175Z,27.00
2019-01-31T11:14:41.814Z,32.43
2019-01-31T11:17:26.923Z,30.97
2019-01-31T11:20:24.705Z,34.13
2019-01-31T11:23:26.514Z,32.60
2019-01-31T11:26:49.294Z,36.20
2019-01-31T11:29:54.462Z,31.23
2019-01-31T11:33:00.862Z,32.40
2019-01-31T11:36:24.329Z,35.07
2019-01-31T11:39:37.502Z,30.67
2019-01-31T11:43:16.336Z,30.87
2019-01-31T11:46:36.851Z,33.30
2019-01-31T11:49:32.063Z,31.00
2019-01-31T11:52:51.617Z,27.60
2019-01-31T11:55:50.401Z,28.80
2019-01-31T11:59:00.063Z,24.97
2019-01-31T12:01:31.098Z,31.87
2019-01-31T12:04:15.934Z,29.47
2019-01-31T12:06:46.691Z,28.67
2019-01-31T12:09:19.222Z,27.73
2019-01-31T12:11:51.513Z,25.17
2019-01-31T12:14:22.276Z,27.33
2019-01-31T12:16:53.058Z,24.77
2019-01-31T12:19:24.695Z,27.33
2019-01-31T12:21:55.471Z,28.30
2019-01-31T12:24:26.255Z,28.53
2019-01-31T12:26:57.129Z,25.97
2019-01-31T12:29:27.901Z,28.07
2019-01-31T12:31:58.685Z,30.73
2019-01-31T12:34:29.583Z,21.63
2019-01-31T12:37:02.108Z,24.57
2019-01-31T12:39:34.734Z,24.37
2019-01-31T12:42:06.830Z,24.83
2019-01-31T12:44:37.816Z,27.47
2019-01-31T12:47:08.882Z,27.07
2019-01-31T12:49:40.383Z,23.70
2019-01-31T12:52:11.384Z,23.83
2019-01-31T12:54:42.355Z,25.03
2019-01-31T12:57:14.972Z,20.93
2019-01-31T12:59:45.738Z,20.10
2019-01-31T13:02:17.494Z,24.90
2019-01-31T13:04:49.063Z,18.57
2019-01-31T13:07:19.867Z,24.30
2019-01-31T13:09:50.571Z,21.50
2019-01-31T13:12:21.585Z,24.40
2019-01-31T13:14:52.517Z,26.77
2019-01-31T13:17:23.359Z,27.33
2019-01-31T13:19:54.375Z,16.90
2019-01-31T13:22:25.199Z,21.07
2019-01-31T13:24:56.251Z,17.80
2019-01-31T13:27:27.143Z,20.77
2019-01-31T13:29:58.311Z,17.97
2019-01-31T13:32:29.175Z,22.93
2019-01-31T13:35:00.048Z,19.93
2019-01-31T13:37:30.895Z,23.87
2019-01-31T13:40:01.859Z,26.13
2019-01-31T13:42:34.203Z,25.10
2019-01-31T13:45:06.551Z,26.10
2019-01-31T13:47:37.466Z,23.80
2019-01-31T13:50:09.887Z,21.97
2019-01-31T13:52:42.745Z,25.03
2019-01-31T13:55:32.233Z,22.43
2019-01-31T13:58:03.908Z,18.37
2019-01-31T14:00:34.703Z,25.40
2019-01-31T14:03:05.712Z,23.70
2019-01-31T14:05:36.761Z,23.30
2019-01-31T14:08:07.910Z,23.80
2019-01-31T14:10:39.971Z,24.80
2019-01-31T14:13:11.483Z,26.07
2019-01-31T14:15:42.387Z,22.90
2019-01-31T14:18:13.116Z,23.30
2019-01-31T14:20:43.961Z,22.77
2019-01-31T14:23:14.882Z,19.13
2019-01-31T14:25:45.742Z,24.20
2019-01-31T14:28:17.467Z,23.40
2019-01-31T14:30:48.454Z,22.63
2019-01-31T14:33:26.270Z,22.97
2019-01-31T14:35:59.149Z,25.37
2019-01-31T14:38:30.150Z,24.87
2019-01-31T14:41:01.258Z,27.43
2019-01-31T14:43:33.839Z,23.53
2019-01-31T14:46:05.120Z,23.27
2019-01-31T14:48:37.353Z,23.97
2019-01-31T14:51:08.707Z,22.70
2019-01-31T14:53:39.626Z,23.77
2019-01-31T14:56:10.512Z,22.90
2019-01-31T14:58:41.262Z,23.73
2019-01-31T15:01:13.170Z,23.03
2019-01-31T15:03:44.944Z,23.43
2019-01-31T15:06:15.721Z,24.87
2019-01-31T15:08:46.449Z,24.13
2019-01-31T15:11:17.536Z,24.47
2019-01-31T15:13:48.334Z,22.50
2019-01-31T15:16:19.143Z,21.43
2019-01-31T15:18:50.108Z,18.57
2019-01-31T15:21:21.252Z,18.70
2019-01-31T15:23:52.190Z,19.67
2019-01-31T15:26:22.989Z,21.17
2019-01-31T15:28:53.719Z,20.10
2019-01-31T15:31:24.549Z,18.03
2019-01-31T15:33:55.374Z,20.03
2019-01-31T15:36:26.257Z,19.80
2019-01-31T15:38:57.015Z,21.40
2019-01-31T15:41:27.718Z,20.20
2019-01-31T15:43:58.535Z,17.17
2019-01-31T15:46:29.336Z,19.77
2019-01-31T15:49:00.129Z,21.50
2019-01-31T15:51:30.930Z,22.37
2019-01-31T15:54:03.427Z,22.17
2019-01-31T15:56:34.260Z,18.40
2019-01-31T15:59:05.357Z,24.13
2019-01-31T16:01:36.279Z,20.77
2019-01-31T16:04:07.071Z,24.53
2019-01-31T16:06:37.879Z,24.43
2019-01-31T16:09:10.019Z,23.87
2019-01-31T16:11:40.853Z,26.80
2019-01-31T16:14:11.968Z,25.97
2019-01-31T16:16:42.895Z,25.47
2019-01-31T16:19:13.706Z,27.03
2019-01-31T16:21:44.455Z,27.00
2019-01-31T16:24:15.238Z,25.97
2019-01-31T16:26:46.016Z,23.60
2019-01-31T16:29:18.205Z,26.27
2019-01-31T16:31:49.044Z,22.33
2019-01-31T16:34:34.262Z,26.77
2019-01-31T16:37:05.854Z,23.90
2019-01-31T16:39:37.646Z,23.43
2019-01-31T16:42:08.646Z,22.77
2019-01-31T16:44:39.539Z,23.00
2019-01-31T16:47:11.690Z,23.43
2019-01-31T16:49:44.099Z,23.07
2019-01-31T16:52:14.962Z,22.17
2019-01-31T16:54:45.846Z,22.50
2019-01-31T16:57:16.803Z,23.30
2019-01-31T16:59:49.114Z,22.87
2019-01-31T17:02:19.868Z,20.30
2019-01-31T17:04:50.610Z,24.40
2019-01-31T17:07:21.385Z,23.27
2019-01-31T17:09:52.103Z,24.87
2019-01-31T17:12:22.957Z,21.43
2019-01-31T17:14:53.740Z,22.97
2019-01-31T17:17:24.524Z,24.20
2019-01-31T17:19:55.299Z,21.83
2019-01-31T17:22:26.234Z,24.80
2019-01-31T17:24:57.045Z,25.40
2019-01-31T17:27:27.803Z,26.80
2019-01-31T17:29:58.626Z,24.27
2019-01-31T17:32:36.527Z,25.63
2019-01-31T17:35:08.314Z,25.57
2019-01-31T17:37:40.848Z,27.47
2019-01-31T17:40:18.713Z,26.70
2019-01-31T17:42:49.472Z,25.00
2019-01-31T17:45:29.880Z,23.13
2019-01-31T17:47:53.503Z,27.50
2019-01-31T17:50:24.287Z,26.30
2019-01-31T17:52:57.279Z,28.97
2019-01-31T17:55:28.387Z,30.87
2019-01-31T17:57:59.224Z,31.73
2019-01-31T18:00:38.813Z,32.17
2019-01-31T18:03:09.760Z,28.33
2019-01-31T18:05:40.559Z,32.07
2019-01-31T18:08:11.347Z,33.37
2019-01-31T18:10:42.204Z,33.17
2019-01-31T18:13:12.986Z,32.80
2019-01-31T18:15:43.766Z,32.47
2019-01-31T18:18:14.718Z,32.23
2019-01-31T18:20:45.554Z,32.80
2019-01-31T18:23:16.365Z,34.33
2019-01-31T18:25:47.114Z,31.07
2019-01-31T18:28:17.888Z,33.90
2019-01-31T18:30:49.179Z,25.47
2019-01-31T18:33:20.046Z,32.47
2019-01-31T18:35:50.818Z,31.93
2019-01-31T18:38:21.586Z,32.00
2019-01-31T18:40:52.487Z,32.23
2019-01-31T18:43:23.381Z,30.97
2019-01-31T18:45:55.746Z,31.80
2019-01-31T18:48:26.559Z,32.77
2019-01-31T18:50:57.323Z,33.63
2019-01-31T18:53:28.229Z,35.93
2019-01-31T18:55:59.413Z,33.73
2019-01-31T18:58:30.821Z,35.30
2019-01-31T19:01:01.615Z,35.10
2019-01-31T19:03:32.382Z,33.73
2019-01-31T19:06:03.084Z,35.17
2019-01-31T19:08:42.356Z,36.43
2019-01-31T19:11:13.207Z,35.23
2019-01-31T19:13:46.304Z,37.70
2019-01-31T19:16:17.080Z,36.30
2019-01-31T19:18:47.847Z,37.37
2019-01-31T19:21:18.678Z,37.57
2019-01-31T19:23:49.652Z,36.97
2019-01-31T19:26:20.444Z,36.03
2019-01-31T19:28:51.348Z,36.37
2019-01-31T19:31:22.235Z,37.83
2019-01-31T19:33:53.091Z,39.50
2019-01-31T19:36:23.995Z,39.07
2019-01-31T19:38:54.919Z,42.00
2019-01-31T19:41:27.142Z,39.07
2019-01-31T19:43:57.956Z,38.30
2019-01-31T19:46:28.730Z,39.83
2019-01-31T19:48:59.591Z,40.97
2019-01-31T19:51:30.473Z,40.33
2019-01-31T19:54:01.388Z,36.97
2019-01-31T19:56:32.180Z,41.47
2019-01-31T19:59:02.982Z,39.53
2019-01-31T20:01:33.942Z,41.30
2019-01-31T20:04:05.500Z,37.40
2019-01-31T20:06:36.722Z,38.93
2019-01-31T20:09:16.804Z,38.57
2019-01-31T20:11:47.714Z,35.20
2019-01-31T20:14:18.604Z,35.57
2019-01-31T20:16:49.607Z,37.90
2019-01-31T20:19:20.485Z,37.60
2019-01-31T20:21:52.168Z,38.47
2019-01-31T20:24:23.064Z,34.57
2019-01-31T20:26:54.823Z,35.70
2019-01-31T20:29:25.929Z,37.13
2019-01-31T20:31:57.009Z,35.50
2019-01-31T20:34:27.764Z,35.87
2019-01-31T20:36:58.645Z,33.17
2019-01-31T20:39:51.239Z,34.73
2019-01-31T20:42:26.132Z,34.20
2019-01-31T20:44:57.124Z,36.03
2019-01-31T20:47:27.879Z,37.97
2019-01-31T20:49:58.677Z,34.80
2019-01-31T20:52:29.359Z,35.67
2019-01-31T20:55:00.189Z,33.60
2019-01-31T20:57:30.986Z,34.60
2019-01-31T21:00:01.754Z,34.73
2019-01-31T21:02:35.169Z,33.37
2019-01-31T21:05:06.705Z,30.87
2019-01-31T21:07:37.499Z,33.50
2019-01-31T21:10:09.143Z,33.50
2019-01-31T21:12:40.854Z,34.77
2019-01-31T21:15:14.987Z,31.20
2019-01-31T21:17:45.816Z,31.63
2019-01-31T21:20:17.623Z,33.07
2019-01-31T21:22:48.733Z,33.43
2019-01-31T21:25:21.174Z,33.77
2019-01-31T21:27:53.020Z,31.40
2019-01-31T21:30:29.047Z,33.23
2019-01-31T21:32:59.822Z,33.10
2019-01-31T21:35:32.426Z,32.17
2019-01-31T21:38:03.333Z,32.60
2019-01-31T21:40:35.646Z,34.20
2019-01-31T21:43:07.973Z,31.17
2019-01-31T21:45:38.925Z,31.87
2019-01-31T21:48:11.315Z,32.70
2019-01-31T21:50:42.194Z,33.07
2019-01-31T21:53:13.015Z,33.50
2019-01-31T21:55:45.303Z,34.20
2019-01-31T21:58:16.127Z,33.43
2019-01-31T22:00:47.384Z,33.23
2019-01-31T22:03:18.330Z,31.80
2019-01-31T22:05:49.124Z,32.33
2019-01-31T22:08:19.898Z,30.43
2019-01-31T22:10:50.708Z,33.27
2019-01-31T22:13:21.587Z,34.13
2019-01-31T22:15:52.389Z,32.80
2019-01-31T22:18:23.170Z,27.63
2019-01-31T22:20:53.914Z,32.07
2019-01-31T22:23:25.505Z,34.50
2019-01-31T22:25:56.223Z,31.70
2019-01-31T22:28:26.978Z,33.43
2019-01-31T22:30:58.789Z,33.97
2019-01-31T22:33:29.531Z,33.70
2019-01-31T22:36:00.268Z,34.33
2019-01-31T22:38:31.131Z,32.13
2019-01-31T22:41:01.976Z,31.10
2019-01-31T22:43:32.791Z,29.30
2019-01-31T22:46:03.587Z,22.40
2019-01-31T22:48:34.372Z,34.07
2019-01-31T22:51:06.243Z,33.63
2019-01-31T22:53:37.071Z,37.10
2019-01-31T22:56:07.891Z,33.20
2019-01-31T22:58:38.690Z,34.63
2019-01-31T23:01:27.725Z,31.87
2019-01-31T23:03:58.540Z,35.77
2019-01-31T23:06:29.386Z,35.77
2019-01-31T23:09:00.147Z,35.77
2019-01-31T23:11:30.935Z,34.17
2019-01-31T23:14:01.690Z,33.93
2019-01-31T23:16:34.111Z,37.30
2019-01-31T23:19:06.643Z,36.80
2019-01-31T23:21:37.394Z,37.90
2019-01-31T23:24:08.337Z,34.93
2019-01-31T23:26:39.099Z,32.57
2019-01-31T23:29:09.820Z,36.23
2019-01-31T23:31:40.595Z,34.77
2019-01-31T23:34:11.356Z,35.80
2019-01-31T23:36:42.139Z,38.90
2019-01-31T23:39:13.016Z,37.13
2019-01-31T23:41:43.890Z,38.07
2019-01-31T23:44:14.673Z,36.23
2019-01-31T23:46:45.446Z,31.77
2019-01-31T23:49:16.689Z,35.93
2019-01-31T23:51:47.376Z,34.53
2019-01-31T23:54:19.659Z,31.00
2019-01-31T23:56:50.426Z,33.67
2019-01-31T23:59:21.179Z,29.73
